createdAt,value
2022-10-24T00:00:14.195Z,994.87
2022-10-24T00:01:14.163Z,994.85
2022-10-24T00:02:14.129Z,994.90
2022-10-24T00:03:14.136Z,994.80
2022-10-24T00:04:14.119Z,994.86
2022-10-24T00:05:14.099Z,994.84
2022-10-24T00:06:14.112Z,994.89
2022-10-24T00:07:14.107Z,994.88
2022-10-24T00:08:14.082Z,994.88
2022-10-24T00:09:14.050Z,994.90
2022-10-24T00:10:14.031Z,994.81
2022-10-24T00:11:14.041Z,994.92
2022-10-24T00:12:14.054Z,994.88
2022-10-24T00:13:14.046Z,994.90
2022-10-24T00:14:14.002Z,994.91
2022-10-24T00:15:13.983Z,994.96
2022-10-24T00:16:13.961Z,994.98
2022-10-24T00:17:13.952Z,994.94
2022-10-24T00:18:13.942Z,995.00
2022-10-24T00:19:13.940Z,994.98
2022-10-24T00:20:13.946Z,994.97
2022-10-24T00:21:13.900Z,994.97
2022-10-24T00:22:13.895Z,994.95
2022-10-24T00:23:13.913Z,995.00
2022-10-24T00:24:13.859Z,994.97
2022-10-24T00:25:13.867Z,994.96
2022-10-24T00:26:13.865Z,994.98
2022-10-24T00:27:13.842Z,995.00
2022-10-24T00:28:13.826Z,994.93
2022-10-24T00:29:13.867Z,994.96
2022-10-24T00:30:13.806Z,994.98
2022-10-24T00:31:13.776Z,994.93
2022-10-24T00:32:13.775Z,994.92
2022-10-24T00:33:13.769Z,994.91
2022-10-24T00:34:13.772Z,994.93
2022-10-24T00:35:13.760Z,994.85
2022-10-24T00:36:13.725Z,994.82
2022-10-24T00:37:13.776Z,994.84
2022-10-24T00:38:13.719Z,994.81
2022-10-24T00:39:13.749Z,994.77
2022-10-24T00:40:13.667Z,994.83
2022-10-24T00:41:13.690Z,994.80
2022-10-24T00:42:13.670Z,994.79
2022-10-24T00:43:13.680Z,994.87
2022-10-24T00:44:13.627Z,994.83
2022-10-24T00:45:13.652Z,994.84
2022-10-24T00:46:13.631Z,994.79
2022-10-24T00:47:13.589Z,994.76
2022-10-24T00:48:13.568Z,994.72
2022-10-24T00:49:13.591Z,994.72
2022-10-24T00:50:13.634Z,994.73
2022-10-24T00:51:13.559Z,994.70
2022-10-24T00:52:13.530Z,994.79
2022-10-24T00:53:13.554Z,994.76
2022-10-24T00:54:13.511Z,994.77
2022-10-24T00:55:13.563Z,994.80
2022-10-24T00:56:13.507Z,994.80
2022-10-24T00:57:13.460Z,994.74
2022-10-24T00:58:13.465Z,994.75
2022-10-24T00:59:13.483Z,994.77
2022-10-24T01:00:13.483Z,994.74
2022-10-24T01:01:13.549Z,994.75
2022-10-24T01:03:13.407Z,994.76
2022-10-24T01:04:13.402Z,994.68
2022-10-24T01:05:13.426Z,994.74
2022-10-24T01:06:13.363Z,994.73
2022-10-24T01:07:13.355Z,994.83
2022-10-24T01:08:13.348Z,994.74
2022-10-24T01:09:13.344Z,994.72
2022-10-24T01:10:13.315Z,994.75
2022-10-24T01:11:13.347Z,994.74
2022-10-24T01:12:13.306Z,994.67
2022-10-24T01:13:13.321Z,994.70
2022-10-24T01:14:13.274Z,994.69
2022-10-24T01:15:13.281Z,994.76
2022-10-24T01:16:13.237Z,994.74
2022-10-24T01:17:13.270Z,994.71
2022-10-24T01:18:13.289Z,994.69
2022-10-24T01:19:13.225Z,994.72
2022-10-24T01:20:13.211Z,994.68
2022-10-24T01:21:13.217Z,994.69
2022-10-24T01:22:13.196Z,994.69
2022-10-24T01:23:13.180Z,994.68
2022-10-24T01:24:13.232Z,994.68
2022-10-24T01:25:13.140Z,994.67
2022-10-24T01:26:13.129Z,994.73
2022-10-24T01:28:13.119Z,994.69
2022-10-24T01:29:13.134Z,994.65
2022-10-24T01:30:13.112Z,994.70
2022-10-24T01:31:13.081Z,994.65
2022-10-24T01:32:13.091Z,994.66
2022-10-24T01:33:13.095Z,994.71
2022-10-24T01:34:13.044Z,994.70
2022-10-24T01:35:13.044Z,994.72
2022-10-24T01:36:13.042Z,994.69
2022-10-24T01:37:14.902Z,994.70
2022-10-24T01:38:13.010Z,994.72
2022-10-24T01:39:12.973Z,994.72
2022-10-24T01:40:12.984Z,994.74
2022-10-24T01:41:12.998Z,994.74
2022-10-24T01:42:12.967Z,994.71
2022-10-24T01:43:12.937Z,994.74
2022-10-24T01:44:12.915Z,994.71
2022-10-24T01:45:12.959Z,994.78
2022-10-24T01:46:12.895Z,994.77
2022-10-24T01:47:12.906Z,994.73
2022-10-24T01:48:12.891Z,994.84
2022-10-24T01:49:12.888Z,994.84
2022-10-24T01:50:12.878Z,994.76
2022-10-24T01:51:12.868Z,994.80
2022-10-24T01:53:12.828Z,994.81
2022-10-24T01:54:12.839Z,994.71
2022-10-24T01:55:12.919Z,994.74
2022-10-24T01:56:12.810Z,994.79
2022-10-24T01:57:12.769Z,994.78
2022-10-24T01:58:12.769Z,994.74
2022-10-24T01:59:12.772Z,994.79
2022-10-24T02:00:12.779Z,994.73
2022-10-24T02:01:12.810Z,994.67
2022-10-24T02:02:12.710Z,994.68
2022-10-24T02:03:12.725Z,994.73
2022-10-24T02:04:12.711Z,994.69
2022-10-24T02:05:12.756Z,994.69
2022-10-24T02:06:12.705Z,994.57
2022-10-24T02:07:12.681Z,994.59
2022-10-24T02:08:12.665Z,994.62
2022-10-24T02:09:12.622Z,994.65
2022-10-24T02:10:12.657Z,994.63
2022-10-24T02:11:12.655Z,994.62
2022-10-24T02:12:12.592Z,994.59
2022-10-24T02:13:12.600Z,994.59
2022-10-24T02:14:12.577Z,994.63
2022-10-24T02:15:12.577Z,994.61
2022-10-24T02:16:12.609Z,994.59
2022-10-24T02:17:12.534Z,994.61
2022-10-24T02:18:12.528Z,994.55
2022-10-24T02:19:12.517Z,994.62
2022-10-24T02:20:12.508Z,994.65
2022-10-24T02:21:12.506Z,994.62
2022-10-24T02:22:12.507Z,994.64
2022-10-24T02:23:12.469Z,994.64
2022-10-24T02:24:12.470Z,994.59
2022-10-24T02:25:12.436Z,994.49
2022-10-24T02:26:12.460Z,994.52
2022-10-24T02:27:12.440Z,994.45
2022-10-24T02:28:12.410Z,994.41
2022-10-24T02:29:12.398Z,994.46
2022-10-24T02:30:12.399Z,994.47
2022-10-24T02:31:12.403Z,994.50
2022-10-24T02:32:12.398Z,994.46
2022-10-24T02:33:12.354Z,994.45
2022-10-24T02:35:12.330Z,994.41
2022-10-24T02:36:12.357Z,994.46
2022-10-24T02:37:12.319Z,994.48
2022-10-24T02:38:12.348Z,994.53
2022-10-24T02:39:12.274Z,994.51
2022-10-24T02:40:12.286Z,994.53
2022-10-24T02:41:12.274Z,994.49
2022-10-24T02:42:12.251Z,994.56
2022-10-24T02:43:12.254Z,994.55
2022-10-24T02:44:12.252Z,994.60
2022-10-24T02:45:12.216Z,994.56
2022-10-24T02:46:12.256Z,994.56
2022-10-24T02:47:12.184Z,994.56
2022-10-24T02:48:12.227Z,994.57
2022-10-24T02:49:12.191Z,994.55
2022-10-24T02:50:12.171Z,994.59
2022-10-24T02:51:12.174Z,994.46
2022-10-24T02:52:12.145Z,994.44
2022-10-24T02:53:12.115Z,994.45
2022-10-24T02:54:12.169Z,994.44
2022-10-24T02:55:12.114Z,994.46
2022-10-24T02:56:12.109Z,994.48
2022-10-24T02:57:12.075Z,994.48
2022-10-24T02:58:12.069Z,994.48
2022-10-24T02:59:12.122Z,994.49
2022-10-24T03:00:12.036Z,994.40
2022-10-24T03:01:12.088Z,994.46
2022-10-24T03:02:12.076Z,994.41
2022-10-24T03:03:12.020Z,994.48
2022-10-24T03:04:12.010Z,994.51
2022-10-24T03:05:11.968Z,994.44
2022-10-24T03:06:11.981Z,994.46
2022-10-24T03:07:11.972Z,994.46
2022-10-24T03:08:12.012Z,994.52
2022-10-24T03:09:11.959Z,994.49
2022-10-24T03:10:11.932Z,994.53
2022-10-24T03:11:11.923Z,994.48
2022-10-24T03:12:11.914Z,994.49
2022-10-24T03:13:11.900Z,994.54
2022-10-24T03:14:11.900Z,994.58
2022-10-24T03:15:11.861Z,994.59
2022-10-24T03:16:14.149Z,994.65
2022-10-24T03:17:11.831Z,994.65
2022-10-24T03:18:11.855Z,994.63
2022-10-24T03:19:11.842Z,994.72
2022-10-24T03:20:11.803Z,994.68
2022-10-24T03:21:11.807Z,994.72
2022-10-24T03:22:11.793Z,994.70
2022-10-24T03:23:11.806Z,994.69
2022-10-24T03:24:11.799Z,994.57
2022-10-24T03:25:11.762Z,994.62
2022-10-24T03:26:11.758Z,994.57
2022-10-24T03:27:11.744Z,994.62
2022-10-24T03:28:11.725Z,994.59
2022-10-24T03:29:11.738Z,994.58
2022-10-24T03:30:11.702Z,994.53
2022-10-24T03:31:11.721Z,994.55
2022-10-24T03:32:11.796Z,994.54
2022-10-24T03:33:11.665Z,994.58
2022-10-24T03:34:11.659Z,994.58
2022-10-24T03:35:14.046Z,994.61
2022-10-24T03:36:11.660Z,994.61
2022-10-24T03:37:11.653Z,994.65
2022-10-24T03:38:11.619Z,994.67
2022-10-24T03:39:11.609Z,994.61
2022-10-24T03:40:11.568Z,994.64
2022-10-24T03:41:11.561Z,994.61
2022-10-24T03:42:11.582Z,994.69
2022-10-24T03:43:11.579Z,994.61
2022-10-24T03:44:11.530Z,994.58
2022-10-24T03:45:11.563Z,994.58
2022-10-24T03:46:11.515Z,994.57
2022-10-24T03:47:11.533Z,994.58
2022-10-24T03:48:11.501Z,994.60
2022-10-24T03:49:11.490Z,994.60
2022-10-24T03:50:11.473Z,994.62
2022-10-24T03:51:11.455Z,994.60
2022-10-24T03:52:11.452Z,994.58
2022-10-24T03:53:11.432Z,994.66
2022-10-24T03:54:11.416Z,994.61
2022-10-24T03:55:11.444Z,994.61
2022-10-24T03:56:11.383Z,994.55
2022-10-24T03:57:11.448Z,994.60
2022-10-24T03:58:11.394Z,994.58
2022-10-24T03:59:11.351Z,994.59
2022-10-24T04:00:11.361Z,994.55
2022-10-24T04:01:11.436Z,994.58
2022-10-24T04:02:11.315Z,994.60
2022-10-24T04:03:11.381Z,994.58
2022-10-24T04:04:11.315Z,994.57
2022-10-24T04:05:11.277Z,994.60
2022-10-24T04:06:11.284Z,994.56
2022-10-24T04:07:11.256Z,994.58
2022-10-24T04:08:11.289Z,994.60
2022-10-24T04:09:11.271Z,994.59
2022-10-24T04:10:11.235Z,994.64
2022-10-24T04:11:11.208Z,994.53
2022-10-24T04:12:11.218Z,994.53
2022-10-24T04:13:11.230Z,994.62
2022-10-24T04:14:11.199Z,994.48
2022-10-24T04:15:11.179Z,994.57
2022-10-24T04:16:11.491Z,994.59
2022-10-24T04:17:11.185Z,994.61
2022-10-24T04:18:11.143Z,994.58
2022-10-24T04:19:11.132Z,994.53
2022-10-24T04:20:11.193Z,994.50
2022-10-24T04:21:11.105Z,994.52
2022-10-24T04:22:11.116Z,994.54
2022-10-24T04:23:11.115Z,994.47
2022-10-24T04:24:11.074Z,994.46
2022-10-24T04:25:11.065Z,994.54
2022-10-24T04:26:11.106Z,994.46
2022-10-24T04:27:11.023Z,994.45
2022-10-24T04:28:11.023Z,994.44
2022-10-24T04:29:11.016Z,994.43
2022-10-24T04:30:16.279Z,994.50
2022-10-24T04:31:12.037Z,994.50
2022-10-24T04:32:10.998Z,994.56
2022-10-24T04:33:10.964Z,994.54
2022-10-24T04:34:10.969Z,994.55
2022-10-24T04:35:10.940Z,994.47
2022-10-24T04:36:10.918Z,994.47
2022-10-24T04:37:10.974Z,994.48
2022-10-24T04:38:10.921Z,994.47
2022-10-24T04:39:10.920Z,994.42
2022-10-24T04:40:10.901Z,994.45
2022-10-24T04:41:12.230Z,994.54
2022-10-24T04:42:10.910Z,994.56
2022-10-24T04:43:10.858Z,994.54
2022-10-24T04:44:10.834Z,994.60
2022-10-24T04:45:10.819Z,994.61
2022-10-24T04:46:10.809Z,994.53
2022-10-24T04:47:10.870Z,994.61
2022-10-24T04:48:10.843Z,994.51
2022-10-24T04:49:10.769Z,994.60
2022-10-24T04:50:10.760Z,994.54
2022-10-24T04:51:10.932Z,994.51
2022-10-24T04:52:10.754Z,994.52
2022-10-24T04:53:10.781Z,994.49
2022-10-24T04:54:10.723Z,994.46
2022-10-24T04:55:10.716Z,994.42
2022-10-24T04:56:10.727Z,994.38
2022-10-24T04:57:10.683Z,994.41
2022-10-24T04:58:10.706Z,994.36
2022-10-24T04:59:10.675Z,994.36
2022-10-24T05:00:10.689Z,994.37
2022-10-24T05:01:10.688Z,994.40
2022-10-24T05:02:10.704Z,994.40
2022-10-24T05:03:10.656Z,994.36
2022-10-24T05:04:10.656Z,994.37
2022-10-24T05:05:10.606Z,994.40
2022-10-24T05:06:10.575Z,994.34
2022-10-24T05:07:10.588Z,994.35
2022-10-24T05:08:10.556Z,994.36
2022-10-24T05:09:10.565Z,994.42
2022-10-24T05:10:10.581Z,994.41
2022-10-24T05:11:10.531Z,994.49
2022-10-24T05:12:10.552Z,994.53
2022-10-24T05:13:10.508Z,994.51
2022-10-24T05:14:10.520Z,994.50
2022-10-24T05:15:10.467Z,994.51
2022-10-24T05:16:10.479Z,994.49
2022-10-24T05:17:10.460Z,994.49
2022-10-24T05:18:10.461Z,994.49
2022-10-24T05:19:10.471Z,994.47
2022-10-24T05:20:10.410Z,994.57
2022-10-24T05:21:10.409Z,994.65
2022-10-24T05:22:11.070Z,994.58
2022-10-24T05:23:10.433Z,994.64
2022-10-24T05:24:10.382Z,994.63
2022-10-24T05:25:10.364Z,994.63
2022-10-24T05:26:10.364Z,994.61
2022-10-24T05:27:10.361Z,994.61
2022-10-24T05:28:10.396Z,994.48
2022-10-24T05:29:10.359Z,994.57
2022-10-24T05:30:10.325Z,994.55
2022-10-24T05:31:10.284Z,994.64
2022-10-24T05:32:10.274Z,994.60
2022-10-24T05:33:10.297Z,994.63
2022-10-24T05:34:10.300Z,994.59
2022-10-24T05:35:10.246Z,994.54
2022-10-24T05:36:10.258Z,994.54
2022-10-24T05:37:10.233Z,994.51
2022-10-24T05:38:10.237Z,994.54
2022-10-24T05:39:10.195Z,994.51
2022-10-24T05:40:10.191Z,994.53
2022-10-24T05:41:10.210Z,994.47
2022-10-24T05:42:10.165Z,994.59
2022-10-24T05:43:10.176Z,994.58
2022-10-24T05:44:10.165Z,994.58
2022-10-24T05:45:10.141Z,994.56
2022-10-24T05:46:10.152Z,994.54
2022-10-24T05:47:10.120Z,994.56
2022-10-24T05:48:10.141Z,994.52
2022-10-24T05:49:10.098Z,994.50
2022-10-24T05:50:10.101Z,994.46
2022-10-24T05:51:10.079Z,994.45
2022-10-24T05:52:10.062Z,994.47
2022-10-24T05:53:10.052Z,994.42
2022-10-24T05:54:10.089Z,994.42
2022-10-24T05:55:10.029Z,994.37
2022-10-24T05:56:10.025Z,994.45
2022-10-24T05:57:09.980Z,994.35
2022-10-24T05:58:09.984Z,994.40
2022-10-24T05:59:09.980Z,994.41
2022-10-24T06:00:09.971Z,994.41
2022-10-24T06:01:10.006Z,994.42
2022-10-24T06:02:09.982Z,994.45
2022-10-24T06:03:09.902Z,994.42
2022-10-24T06:04:12.888Z,994.45
2022-10-24T06:05:09.926Z,994.47
2022-10-24T06:06:09.926Z,994.52
2022-10-24T06:07:09.888Z,994.49
2022-10-24T06:08:09.866Z,994.47
2022-10-24T06:09:09.857Z,994.50
2022-10-24T06:10:09.844Z,994.49
2022-10-24T06:11:09.960Z,994.46
2022-10-24T06:12:09.828Z,994.47
2022-10-24T06:13:09.808Z,994.45
2022-10-24T06:14:09.808Z,994.33
2022-10-24T06:15:09.788Z,994.35
2022-10-24T06:16:09.840Z,994.31
2022-10-24T06:17:09.788Z,994.41
2022-10-24T06:18:09.759Z,994.31
2022-10-24T06:19:09.759Z,994.36
2022-10-24T06:20:09.769Z,994.39
2022-10-24T06:21:09.727Z,994.45
2022-10-24T06:22:09.704Z,994.52
2022-10-24T06:23:09.714Z,994.51
2022-10-24T06:24:09.708Z,994.46
2022-10-24T06:25:09.678Z,994.45
2022-10-24T06:26:09.680Z,994.52
2022-10-24T06:27:09.662Z,994.57
2022-10-24T06:28:09.651Z,994.57
2022-10-24T06:29:09.640Z,994.62
2022-10-24T06:30:09.610Z,994.64
2022-10-24T06:31:09.636Z,994.65
2022-10-24T06:32:09.590Z,994.64
2022-10-24T06:33:09.604Z,994.67
2022-10-24T06:34:09.602Z,994.67
2022-10-24T06:35:09.587Z,994.75
2022-10-24T06:36:09.548Z,994.71
2022-10-24T06:37:09.532Z,994.79
2022-10-24T06:38:09.543Z,994.82
2022-10-24T06:39:09.526Z,994.93
2022-10-24T06:40:09.503Z,994.94
2022-10-24T06:41:09.535Z,995.02
2022-10-24T06:42:09.464Z,995.04
2022-10-24T06:43:09.445Z,995.00
2022-10-24T06:44:11.153Z,995.07
2022-10-24T06:45:09.459Z,995.07
2022-10-24T06:46:09.415Z,995.06
2022-10-24T06:47:09.444Z,995.07
2022-10-24T06:48:09.410Z,995.11
2022-10-24T06:49:09.417Z,995.14
2022-10-24T06:50:09.404Z,995.18
2022-10-24T06:51:09.367Z,995.23
2022-10-24T06:52:09.360Z,995.23
2022-10-24T06:53:09.387Z,995.25
2022-10-24T06:54:09.371Z,995.15
2022-10-24T06:55:09.336Z,995.04
2022-10-24T06:56:09.330Z,995.16
2022-10-24T06:57:09.301Z,995.09
2022-10-24T06:58:09.308Z,994.96
2022-10-24T06:59:09.312Z,994.97
2022-10-24T07:00:09.266Z,994.86
2022-10-24T07:01:09.408Z,994.89
2022-10-24T07:02:09.336Z,994.91
2022-10-24T07:03:09.242Z,994.91
2022-10-24T07:04:09.222Z,995.09
2022-10-24T07:05:09.266Z,995.13
2022-10-24T07:06:09.245Z,995.20
2022-10-24T07:07:09.185Z,995.25
2022-10-24T07:08:09.184Z,995.30
2022-10-24T07:09:11.548Z,995.31
2022-10-24T07:10:10.193Z,995.30
2022-10-24T07:11:09.168Z,995.32
2022-10-24T07:12:09.202Z,995.27
2022-10-24T07:13:09.103Z,995.20
2022-10-24T07:14:09.286Z,995.19
2022-10-24T07:15:09.138Z,995.23
2022-10-24T07:16:09.097Z,995.23
2022-10-24T07:17:09.087Z,995.29
2022-10-24T07:18:09.069Z,995.30
2022-10-24T07:19:09.068Z,995.28
2022-10-24T07:20:09.059Z,995.33
2022-10-24T07:21:09.038Z,995.38
2022-10-24T07:22:09.006Z,995.34
2022-10-24T07:23:08.984Z,995.23
2022-10-24T07:24:09.025Z,995.22
2022-10-24T07:25:08.966Z,995.15
2022-10-24T07:26:08.947Z,995.15
2022-10-24T07:27:08.951Z,995.18
2022-10-24T07:28:08.962Z,995.31
2022-10-24T07:29:08.960Z,995.20
2022-10-24T07:30:08.952Z,995.33
2022-10-24T07:31:08.915Z,995.31
2022-10-24T07:32:08.902Z,995.35
2022-10-24T07:33:08.913Z,995.28
2022-10-24T07:34:08.912Z,995.32
2022-10-24T07:35:08.892Z,995.26
2022-10-24T07:36:08.874Z,995.28
2022-10-24T07:37:08.864Z,995.33
2022-10-24T07:38:08.845Z,995.24
2022-10-24T07:39:08.822Z,995.34
2022-10-24T07:40:08.792Z,995.26
2022-10-24T07:41:08.818Z,995.24
2022-10-24T07:42:08.782Z,995.27
2022-10-24T07:43:08.783Z,995.31
2022-10-24T07:44:08.772Z,995.35
2022-10-24T07:45:08.766Z,995.39
2022-10-24T07:46:08.730Z,995.37
2022-10-24T07:47:08.736Z,995.40
2022-10-24T07:48:08.739Z,995.37
2022-10-24T07:49:08.705Z,995.35
2022-10-24T07:50:08.702Z,995.33
2022-10-24T07:51:08.669Z,995.41
2022-10-24T07:52:08.655Z,995.37
2022-10-24T07:53:08.646Z,995.33
2022-10-24T07:54:08.713Z,995.38
2022-10-24T07:55:08.672Z,995.37
2022-10-24T07:56:08.617Z,995.28
2022-10-24T07:57:08.587Z,995.25
2022-10-24T07:58:08.597Z,995.25
2022-10-24T07:59:09.679Z,995.24
2022-10-24T08:00:09.568Z,995.10
2022-10-24T08:01:08.587Z,995.11
2022-10-24T08:02:08.559Z,995.21
2022-10-24T08:03:08.553Z,995.12
2022-10-24T08:04:08.560Z,995.16
2022-10-24T08:05:08.532Z,994.95
2022-10-24T08:06:08.508Z,995.13
2022-10-24T08:07:08.543Z,995.11
2022-10-24T08:09:09.461Z,994.98
2022-10-24T08:10:08.451Z,994.99
2022-10-24T08:11:08.453Z,995.06
2022-10-24T08:12:08.532Z,995.09
2022-10-24T08:13:11.518Z,995.09
2022-10-24T08:14:09.407Z,995.04
2022-10-24T08:15:08.390Z,995.15
2022-10-24T08:16:08.417Z,995.00
2022-10-24T08:17:08.407Z,995.04
2022-10-24T08:18:08.397Z,995.02
2022-10-24T08:19:08.389Z,995.09
2022-10-24T08:20:08.362Z,995.12
2022-10-24T08:21:08.359Z,995.11
2022-10-24T08:22:08.319Z,995.13
2022-10-24T08:23:08.299Z,995.10
2022-10-24T08:24:08.339Z,995.11
2022-10-24T08:25:08.290Z,995.03
2022-10-24T08:26:08.299Z,994.98
2022-10-24T08:27:08.268Z,994.96
2022-10-24T08:28:09.202Z,995.01
2022-10-24T08:29:08.280Z,995.00
2022-10-24T08:30:08.247Z,994.91
2022-10-24T08:31:08.218Z,994.89
2022-10-24T08:32:08.196Z,994.84
2022-10-24T08:33:08.192Z,994.82
2022-10-24T08:34:08.191Z,994.87
2022-10-24T08:35:08.159Z,994.88
2022-10-24T08:36:08.200Z,994.93
2022-10-24T08:37:08.144Z,994.92
2022-10-24T08:38:08.162Z,994.91
2022-10-24T08:39:08.137Z,994.89
2022-10-24T08:40:08.124Z,994.99
2022-10-24T08:41:08.154Z,994.97
2022-10-24T08:42:08.072Z,994.97
2022-10-24T08:43:08.075Z,994.96
2022-10-24T08:44:08.053Z,994.89
2022-10-24T08:45:08.070Z,994.97
2022-10-24T08:46:08.097Z,994.98
2022-10-24T08:47:08.027Z,994.97
2022-10-24T08:48:08.007Z,995.05
2022-10-24T08:49:08.017Z,995.18
2022-10-24T08:50:07.993Z,995.21
2022-10-24T08:51:08.018Z,995.24
2022-10-24T08:52:08.023Z,995.16
2022-10-24T08:53:07.960Z,995.07
2022-10-24T08:54:07.968Z,995.10
2022-10-24T08:55:09.146Z,995.09
2022-10-24T08:56:07.916Z,995.11
2022-10-24T08:57:07.927Z,995.12
2022-10-24T08:58:07.886Z,995.13
2022-10-24T08:59:07.890Z,995.06
2022-10-24T09:00:07.900Z,995.10
2022-10-24T09:01:07.967Z,995.02
2022-10-24T09:02:11.270Z,995.07
2022-10-24T09:03:08.836Z,995.05
2022-10-24T09:04:07.843Z,995.02
2022-10-24T09:05:07.809Z,994.98
2022-10-24T09:06:07.841Z,994.96
2022-10-24T09:07:07.818Z,994.92
2022-10-24T09:08:07.791Z,994.87
2022-10-24T09:09:07.782Z,994.93
2022-10-24T09:10:07.785Z,994.90
2022-10-24T09:11:07.750Z,995.05
2022-10-24T09:12:07.721Z,994.90
2022-10-24T09:13:07.794Z,994.93
2022-10-24T09:14:07.692Z,994.97
2022-10-24T09:15:07.717Z,994.99
2022-10-24T09:16:07.714Z,994.90
2022-10-24T09:17:07.731Z,994.94
2022-10-24T09:18:07.705Z,994.87
2022-10-24T09:19:07.666Z,994.87
2022-10-24T09:20:07.656Z,994.89
2022-10-24T09:21:07.636Z,994.85
2022-10-24T09:22:07.633Z,994.88
2022-10-24T09:23:07.645Z,994.88
2022-10-24T09:24:07.636Z,994.86
2022-10-24T09:25:07.588Z,994.82
2022-10-24T09:26:07.589Z,994.84
2022-10-24T09:27:07.589Z,994.88
2022-10-24T09:28:07.549Z,994.89
2022-10-24T09:29:07.540Z,994.90
2022-10-24T09:30:07.590Z,994.93
2022-10-24T09:31:07.526Z,994.98
2022-10-24T09:32:07.497Z,994.99
2022-10-24T09:33:07.531Z,994.97
2022-10-24T09:34:07.521Z,994.95
2022-10-24T09:35:07.468Z,994.95
2022-10-24T09:36:07.485Z,994.97
2022-10-24T09:37:07.473Z,994.90
2022-10-24T09:38:07.431Z,994.87
2022-10-24T09:39:07.409Z,994.91
2022-10-24T09:40:07.430Z,994.86
2022-10-24T09:41:07.424Z,994.90
2022-10-24T09:42:07.371Z,994.90
2022-10-24T09:43:07.388Z,994.93
2022-10-24T09:44:07.375Z,994.97
2022-10-24T09:45:07.381Z,994.97
2022-10-24T09:46:07.371Z,994.90
2022-10-24T09:47:07.357Z,994.91
2022-10-24T09:48:07.332Z,994.92
2022-10-24T09:49:07.303Z,994.92
2022-10-24T09:50:07.309Z,994.95
2022-10-24T09:51:07.354Z,995.03
2022-10-24T09:52:07.316Z,994.97
2022-10-24T09:53:07.288Z,994.97
2022-10-24T09:54:07.265Z,995.02
2022-10-24T09:55:07.248Z,994.96
2022-10-24T09:56:07.229Z,994.93
2022-10-24T09:57:07.244Z,994.94
2022-10-24T09:58:07.394Z,994.97
2022-10-24T09:59:07.210Z,994.94
2022-10-24T10:00:07.190Z,994.93
2022-10-24T10:01:07.354Z,994.95
2022-10-24T10:02:07.268Z,995.01
2022-10-24T10:03:07.161Z,994.96
2022-10-24T10:04:10.035Z,995.10
2022-10-24T10:05:07.170Z,995.03
2022-10-24T10:06:07.208Z,994.99
2022-10-24T10:07:07.132Z,995.07
2022-10-24T10:08:07.089Z,995.04
2022-10-24T10:09:07.090Z,995.02
2022-10-24T10:10:07.074Z,995.10
2022-10-24T10:11:07.103Z,995.08
2022-10-24T10:12:07.056Z,995.11
2022-10-24T10:13:07.044Z,995.05
2022-10-24T10:14:07.061Z,995.07
2022-10-24T10:15:07.034Z,995.06
2022-10-24T10:16:07.012Z,995.01
2022-10-24T10:17:07.027Z,995.07
2022-10-24T10:18:07.019Z,995.03
2022-10-24T10:19:06.961Z,994.98
2022-10-24T10:20:06.946Z,995.08
2022-10-24T10:21:06.950Z,995.05
2022-10-24T10:22:06.924Z,995.06
2022-10-24T10:23:06.946Z,995.04
2022-10-24T10:24:06.924Z,995.10
2022-10-24T10:25:06.938Z,995.13
2022-10-24T10:26:06.958Z,995.00
2022-10-24T10:27:06.868Z,995.04
2022-10-24T10:28:06.856Z,995.05
2022-10-24T10:29:06.849Z,995.10
2022-10-24T10:30:06.828Z,995.02
2022-10-24T10:31:06.836Z,995.03
2022-10-24T10:32:06.837Z,995.11
2022-10-24T10:33:06.797Z,995.08
2022-10-24T10:34:06.817Z,995.05
2022-10-24T10:35:06.782Z,995.15
2022-10-24T10:36:06.796Z,995.02
2022-10-24T10:37:06.762Z,995.10
2022-10-24T10:38:06.769Z,995.08
2022-10-24T10:39:06.732Z,995.08
2022-10-24T10:40:06.749Z,995.02
2022-10-24T10:41:06.743Z,994.97
2022-10-24T10:42:06.712Z,994.99
2022-10-24T10:43:06.670Z,995.08
2022-10-24T10:44:06.674Z,995.09
2022-10-24T10:45:06.651Z,995.02
2022-10-24T10:46:06.691Z,995.02
2022-10-24T10:47:06.666Z,995.10
2022-10-24T10:48:06.643Z,995.10
2022-10-24T10:49:06.635Z,995.14
2022-10-24T10:50:06.653Z,995.10
2022-10-24T10:51:08.327Z,995.12
2022-10-24T10:52:06.597Z,995.04
2022-10-24T10:53:06.597Z,995.12
2022-10-24T10:54:06.577Z,995.07
2022-10-24T10:55:06.544Z,995.15
2022-10-24T10:56:06.568Z,995.00
2022-10-24T10:57:06.516Z,995.08
2022-10-24T10:58:09.838Z,995.07
2022-10-24T10:59:07.507Z,995.06
2022-10-24T11:00:06.510Z,994.99
2022-10-24T11:01:06.693Z,995.01
2022-10-24T11:02:06.608Z,995.06
2022-10-24T11:03:06.456Z,995.03
2022-10-24T11:04:06.458Z,995.05
2022-10-24T11:05:06.417Z,995.02
2022-10-24T11:06:06.441Z,995.06
2022-10-24T11:07:06.410Z,995.09
2022-10-24T11:08:06.434Z,995.04
2022-10-24T11:09:06.393Z,995.09
2022-10-24T11:10:06.376Z,995.11
2022-10-24T11:11:06.393Z,995.15
2022-10-24T11:12:06.352Z,995.10
2022-10-24T11:13:06.380Z,995.11
2022-10-24T11:14:06.360Z,995.13
2022-10-24T11:15:06.339Z,995.10
2022-10-24T11:16:06.292Z,995.10
2022-10-24T11:17:06.295Z,995.16
2022-10-24T11:18:06.282Z,995.16
2022-10-24T11:19:06.322Z,995.14
2022-10-24T11:20:06.295Z,995.09
2022-10-24T11:21:06.248Z,995.11
2022-10-24T11:22:06.223Z,995.06
2022-10-24T11:23:06.235Z,995.10
2022-10-24T11:24:07.623Z,995.11
2022-10-24T11:25:06.206Z,995.11
2022-10-24T11:26:06.215Z,995.11
2022-10-24T11:27:06.180Z,995.07
2022-10-24T11:28:06.155Z,995.01
2022-10-24T11:29:06.177Z,995.10
2022-10-24T11:30:06.146Z,995.02
2022-10-24T11:31:06.132Z,995.04
2022-10-24T11:32:06.128Z,995.06
2022-10-24T11:33:06.096Z,994.99
2022-10-24T11:34:06.110Z,995.15
2022-10-24T11:35:06.097Z,995.03
2022-10-24T11:36:06.078Z,995.08
2022-10-24T11:37:06.053Z,995.05
2022-10-24T11:38:06.083Z,995.10
2022-10-24T11:39:06.302Z,995.04
2022-10-24T11:40:06.044Z,994.99
2022-10-24T11:41:06.029Z,995.05
2022-10-24T11:42:06.011Z,995.10
2022-10-24T11:43:06.052Z,995.09
2022-10-24T11:44:06.034Z,995.06
2022-10-24T11:45:05.992Z,995.15
2022-10-24T11:46:05.994Z,995.09
2022-10-24T11:47:06.692Z,995.13
2022-10-24T11:48:05.926Z,995.09
2022-10-24T11:49:05.915Z,995.02
2022-10-24T11:50:05.955Z,995.00
2022-10-24T11:51:05.885Z,995.03
2022-10-24T11:52:05.875Z,995.07
2022-10-24T11:53:05.877Z,995.03
2022-10-24T11:54:05.887Z,995.01
2022-10-24T11:55:05.878Z,994.96
2022-10-24T11:56:05.848Z,994.97
2022-10-24T11:57:05.872Z,994.97
2022-10-24T11:58:05.826Z,994.98
2022-10-24T11:59:05.879Z,995.01
2022-10-24T12:00:05.786Z,994.92
2022-10-24T12:01:05.844Z,995.02
2022-10-24T12:02:05.777Z,995.00
2022-10-24T12:03:05.760Z,994.91
2022-10-24T12:04:05.746Z,994.91
2022-10-24T12:05:05.794Z,994.92
2022-10-24T12:06:05.719Z,994.92
2022-10-24T12:07:05.750Z,994.84
2022-10-24T12:08:05.703Z,994.85
2022-10-24T12:09:05.703Z,994.92
2022-10-24T12:10:05.703Z,994.89
2022-10-24T12:11:05.675Z,994.82
2022-10-24T12:12:05.673Z,994.79
2022-10-24T12:13:05.675Z,994.78
2022-10-24T12:14:05.798Z,994.74
2022-10-24T12:15:05.624Z,994.75
2022-10-24T12:16:05.644Z,994.77
2022-10-24T12:17:05.606Z,994.84
2022-10-24T12:18:05.632Z,994.83
2022-10-24T12:19:05.593Z,994.83
2022-10-24T12:20:05.575Z,994.84
2022-10-24T12:21:05.579Z,994.85
2022-10-24T12:22:05.551Z,994.87
2022-10-24T12:23:05.545Z,994.83
2022-10-24T12:24:05.525Z,994.82
2022-10-24T12:25:05.504Z,994.81
2022-10-24T12:26:05.504Z,994.79
2022-10-24T12:27:05.498Z,994.83
2022-10-24T12:28:05.478Z,994.83
2022-10-24T12:29:05.449Z,994.80
2022-10-24T12:30:05.442Z,994.87
2022-10-24T12:31:05.490Z,994.78
2022-10-24T12:32:05.449Z,994.79
2022-10-24T12:33:05.407Z,994.76